sensor_id;sensor_type;location;lat;lon;timestamp;temperature;humidity
81161;DHT22;70637;48.514;14.500;2024-03-02T00:00:13;29.10;31.90
81161;DHT22;70637;48.514;14.500;2024-03-02T00:02:45;29.10;31.90
81161;DHT22;70637;48.514;14.500;2024-03-02T00:05:13;29.10;31.90
81161;DHT22;70637;48.514;14.500;2024-03-02T00:07:44;29.10;32.00
81161;DHT22;70637;48.514;14.500;2024-03-02T00:10:11;29.10;31.90
81161;DHT22;70637;48.514;14.500;2024-03-02T00:12:38;29.10;31.90
81161;DHT22;70637;48.514;14.500;2024-03-02T00:17:53;29.10;31.90
81161;DHT22;70637;48.514;14.500;2024-03-02T00:20:22;29.10;31.90
81161;DHT22;70637;48.514;14.500;2024-03-02T00:22:48;29.10;32.90
81161;DHT22;70637;48.514;14.500;2024-03-02T00:25:13;29.10;31.90
81161;DHT22;70637;48.514;14.500;2024-03-02T00:27:39;29.10;31.90
81161;DHT22;70637;48.514;14.500;2024-03-02T00:33:10;29.10;31.90
81161;DHT22;70637;48.514;14.500;2024-03-02T00:35:36;29.00;31.80
81161;DHT22;70637;48.514;14.500;2024-03-02T00:38:06;29.10;31.80
81161;DHT22;70637;48.514;14.500;2024-03-02T00:40:31;29.10;31.80
81161;DHT22;70637;48.514;14.500;2024-03-02T00:42:57;29.10;31.80
81161;DHT22;70637;48.514;14.500;2024-03-02T00:45:24;29.10;31.80
81161;DHT22;70637;48.514;14.500;2024-03-02T00:47:51;29.10;31.80
81161;DHT22;70637;48.514;14.500;2024-03-02T00:50:17;29.10;31.80
81161;DHT22;70637;48.514;14.500;2024-03-02T00:52:42;29.10;31.70
81161;DHT22;70637;48.514;14.500;2024-03-02T00:55:08;29.10;31.70
81161;DHT22;70637;48.514;14.500;2024-03-02T00:57:34;29.10;31.70
81161;DHT22;70637;48.514;14.500;2024-03-02T01:00:00;29.10;31.70
81161;DHT22;70637;48.514;14.500;2024-03-02T01:02:26;29.10;31.70
81161;DHT22;70637;48.514;14.500;2024-03-02T01:04:52;29.10;31.70
81161;DHT22;70637;48.514;14.500;2024-03-02T01:07:18;29.10;31.70
81161;DHT22;70637;48.514;14.500;2024-03-02T01:09:43;29.10;31.80
81161;DHT22;70637;48.514;14.500;2024-03-02T01:12:10;29.00;31.80
81161;DHT22;70637;48.514;14.500;2024-03-02T01:14:36;29.10;32.00
81161;DHT22;70637;48.514;14.500;2024-03-02T01:17:01;29.00;32.00
81161;DHT22;70637;48.514;14.500;2024-03-02T01:19:30;29.10;32.00
81161;DHT22;70637;48.514;14.500;2024-03-02T01:21:55;29.10;32.00
81161;DHT22;70637;48.514;14.500;2024-03-02T01:24:21;29.10;32.00
81161;DHT22;70637;48.514;14.500;2024-03-02T01:26:47;29.10;32.00
81161;DHT22;70637;48.514;14.500;2024-03-02T01:29:12;29.10;32.00
81161;DHT22;70637;48.514;14.500;2024-03-02T01:31:38;29.20;31.90
81161;DHT22;70637;48.514;14.500;2024-03-02T01:34:07;29.20;31.80
81161;DHT22;70637;48.514;14.500;2024-03-02T01:36:33;29.20;31.90
81161;DHT22;70637;48.514;14.500;2024-03-02T01:38:59;29.10;31.70
81161;DHT22;70637;48.514;14.500;2024-03-02T01:41:24;29.10;31.80
81161;DHT22;70637;48.514;14.500;2024-03-02T01:43:51;29.00;31.80
81161;DHT22;70637;48.514;14.500;2024-03-02T01:46:17;29.00;31.80
81161;DHT22;70637;48.514;14.500;2024-03-02T01:48:42;28.90;31.80
81161;DHT22;70637;48.514;14.500;2024-03-02T01:51:08;28.90;31.90
81161;DHT22;70637;48.514;14.500;2024-03-02T01:53:34;28.90;31.90
81161;DHT22;70637;48.514;14.500;2024-03-02T01:56:00;28.80;31.90
81161;DHT22;70637;48.514;14.500;2024-03-02T01:58:27;28.80;32.10
81161;DHT22;70637;48.514;14.500;2024-03-02T02:00:53;28.70;32.00
81161;DHT22;70637;48.514;14.500;2024-03-02T02:03:18;28.70;32.10
81161;DHT22;70637;48.514;14.500;2024-03-02T02:05:44;28.70;32.10
81161;DHT22;70637;48.514;14.500;2024-03-02T02:08:11;28.60;32.20
81161;DHT22;70637;48.514;14.500;2024-03-02T02:10:36;28.60;32.20
81161;DHT22;70637;48.514;14.500;2024-03-02T02:13:02;28.60;32.30
81161;DHT22;70637;48.514;14.500;2024-03-02T02:15:31;28.50;32.30
81161;DHT22;70637;48.514;14.500;2024-03-02T02:17:58;28.50;32.40
81161;DHT22;70637;48.514;14.500;2024-03-02T02:20:24;28.40;32.40
81161;DHT22;70637;48.514;14.500;2024-03-02T02:22:58;28.40;33.50
81161;DHT22;70637;48.514;14.500;2024-03-02T02:25:24;28.40;32.50
81161;DHT22;70637;48.514;14.500;2024-03-02T02:27:49;28.40;32.60
81161;DHT22;70637;48.514;14.500;2024-03-02T02:30:29;28.30;32.60
81161;DHT22;70637;48.514;14.500;2024-03-02T02:32:55;28.30;32.60
81161;DHT22;70637;48.514;14.500;2024-03-02T02:35:21;28.30;32.70
81161;DHT22;70637;48.514;14.500;2024-03-02T02:37:47;28.20;32.70
81161;DHT22;70637;48.514;14.500;2024-03-02T02:40:14;28.20;32.80
81161;DHT22;70637;48.514;14.500;2024-03-02T02:42:40;28.10;32.80
81161;DHT22;70637;48.514;14.500;2024-03-02T02:45:06;28.20;32.90
81161;DHT22;70637;48.514;14.500;2024-03-02T02:47:32;28.10;32.80
81161;DHT22;70637;48.514;14.500;2024-03-02T02:50:03;28.10;32.90
81161;DHT22;70637;48.514;14.500;2024-03-02T02:52:35;28.10;33.00
81161;DHT22;70637;48.514;14.500;2024-03-02T02:55:03;28.10;33.00
81161;DHT22;70637;48.514;14.500;2024-03-02T02:57:29;28.00;33.00
81161;DHT22;70637;48.514;14.500;2024-03-02T02:59:57;28.00;33.00
81161;DHT22;70637;48.514;14.500;2024-03-02T03:02:22;28.00;33.10
81161;DHT22;70637;48.514;14.500;2024-03-02T03:04:48;28.00;33.10
81161;DHT22;70637;48.514;14.500;2024-03-02T03:07:13;27.90;34.20
81161;DHT22;70637;48.514;14.500;2024-03-02T03:09:39;27.90;33.10
81161;DHT22;70637;48.514;14.500;2024-03-02T03:12:05;27.90;33.20
81161;DHT22;70637;48.514;14.500;2024-03-02T03:14:31;27.90;33.20
81161;DHT22;70637;48.514;14.500;2024-03-02T03:16:56;27.90;33.20
81161;DHT22;70637;48.514;14.500;2024-03-02T03:19:22;27.90;33.30
81161;DHT22;70637;48.514;14.500;2024-03-02T03:21:47;27.90;33.30
81161;DHT22;70637;48.514;14.500;2024-03-02T03:24:13;27.80;33.30
81161;DHT22;70637;48.514;14.500;2024-03-02T03:26:39;27.90;33.40
81161;DHT22;70637;48.514;14.500;2024-03-02T03:29:04;27.80;33.40
81161;DHT22;70637;48.514;14.500;2024-03-02T03:31:30;27.80;33.40
81161;DHT22;70637;48.514;14.500;2024-03-02T03:33:55;27.80;33.40
81161;DHT22;70637;48.514;14.500;2024-03-02T03:36:21;27.80;33.40
81161;DHT22;70637;48.514;14.500;2024-03-02T03:38:47;27.80;33.40
81161;DHT22;70637;48.514;14.500;2024-03-02T03:41:13;27.80;33.50
81161;DHT22;70637;48.514;14.500;2024-03-02T03:43:39;27.80;33.60
81161;DHT22;70637;48.514;14.500;2024-03-02T16:42:12;27.20;34.30
81161;DHT22;70637;48.514;14.500;2024-03-02T16:44:38;27.20;34.40
81161;DHT22;70637;48.514;14.500;2024-03-02T16:47:03;27.20;34.30
81161;DHT22;70637;48.514;14.500;2024-03-02T16:49:30;27.20;34.30
81161;DHT22;70637;48.514;14.500;2024-03-02T16:51:56;27.20;34.30
81161;DHT22;70637;48.514;14.500;2024-03-02T16:54:21;27.20;34.20
81161;DHT22;70637;48.514;14.500;2024-03-02T16:56:47;27.20;34.20
81161;DHT22;70637;48.514;14.500;2024-03-02T16:59:13;27.30;34.20
81161;DHT22;70637;48.514;14.500;2024-03-02T17:01:39;27.30;34.20
81161;DHT22;70637;48.514;14.500;2024-03-02T17:04:04;27.30;34.20
81161;DHT22;70637;48.514;14.500;2024-03-02T17:06:32;27.30;34.10
81161;DHT22;70637;48.514;14.500;2024-03-02T17:08:57;27.30;34.10
81161;DHT22;70637;48.514;14.500;2024-03-02T17:11:23;27.30;34.10
81161;DHT22;70637;48.514;14.500;2024-03-02T17:13:49;27.30;34.20
81161;DHT22;70637;48.514;14.500;2024-03-02T17:16:17;27.30;34.10
81161;DHT22;70637;48.514;14.500;2024-03-02T17:18:43;27.30;34.10
81161;DHT22;70637;48.514;14.500;2024-03-02T17:21:09;27.30;34.10
81161;DHT22;70637;48.514;14.500;2024-03-02T17:23:35;27.30;34.10
81161;DHT22;70637;48.514;14.500;2024-03-02T17:26:01;27.30;34.00
81161;DHT22;70637;48.514;14.500;2024-03-02T17:28:27;27.30;34.10
81161;DHT22;70637;48.514;14.500;2024-03-02T17:30:54;27.30;34.10
81161;DHT22;70637;48.514;14.500;2024-03-02T17:33:20;27.30;34.00
81161;DHT22;70637;48.514;14.500;2024-03-02T17:35:46;27.30;34.10
81161;DHT22;70637;48.514;14.500;2024-03-02T17:38:19;27.30;34.00
81161;DHT22;70637;48.514;14.500;2024-03-02T17:40:44;27.30;34.10
81161;DHT22;70637;48.514;14.500;2024-03-02T17:43:10;27.30;34.00
81161;DHT22;70637;48.514;14.500;2024-03-02T17:45:40;27.30;34.00
81161;DHT22;70637;48.514;14.500;2024-03-02T17:48:08;27.30;34.00
81161;DHT22;70637;48.514;14.500;2024-03-02T17:50:37;27.30;34.00
81161;DHT22;70637;48.514;14.500;2024-03-02T17:53:03;27.30;34.00
81161;DHT22;70637;48.514;14.500;2024-03-02T17:55:29;27.30;34.00
81161;DHT22;70637;48.514;14.500;2024-03-02T17:57:54;27.30;34.00
81161;DHT22;70637;48.514;14.500;2024-03-02T18:00:20;27.40;34.10
81161;DHT22;70637;48.514;14.500;2024-03-02T18:02:46;27.30;34.00
81161;DHT22;70637;48.514;14.500;2024-03-02T18:05:12;27.30;34.00
81161;DHT22;70637;48.514;14.500;2024-03-02T18:07:38;27.40;34.10
81161;DHT22;70637;48.514;14.500;2024-03-02T18:10:04;27.30;34.00
81161;DHT22;70637;48.514;14.500;2024-03-02T18:12:30;27.30;34.00
81161;DHT22;70637;48.514;14.500;2024-03-02T18:14:56;27.30;34.00
81161;DHT22;70637;48.514;14.500;2024-03-02T18:17:22;27.30;34.00
81161;DHT22;70637;48.514;14.500;2024-03-02T18:19:51;27.30;34.10
81161;DHT22;70637;48.514;14.500;2024-03-02T18:22:17;27.30;34.10
81161;DHT22;70637;48.514;14.500;2024-03-02T18:24:43;27.30;34.10
81161;DHT22;70637;48.514;14.500;2024-03-02T18:27:11;27.30;34.20
81161;DHT22;70637;48.514;14.500;2024-03-02T18:29:37;27.30;34.20
81161;DHT22;70637;48.514;14.500;2024-03-02T18:32:03;27.30;34.30
81161;DHT22;70637;48.514;14.500;2024-03-02T18:34:29;27.30;34.30
81161;DHT22;70637;48.514;14.500;2024-03-02T18:36:55;27.30;34.30
81161;DHT22;70637;48.514;14.500;2024-03-02T18:39:21;27.40;34.50
81161;DHT22;70637;48.514;14.500;2024-03-02T18:41:47;27.30;34.40
81161;DHT22;70637;48.514;14.500;2024-03-02T18:44:12;27.30;34.50
81161;DHT22;70637;48.514;14.500;2024-03-02T18:46:38;27.40;34.60
81161;DHT22;70637;48.514;14.500;2024-03-02T18:49:04;27.30;34.50
81161;DHT22;70637;48.514;14.500;2024-03-02T18:51:29;27.30;34.50
81161;DHT22;70637;48.514;14.500;2024-03-02T18:53:55;27.30;34.60
81161;DHT22;70637;48.514;14.500;2024-03-02T18:56:20;27.30;34.70
81161;DHT22;70637;48.514;14.500;2024-03-02T18:58:46;27.30;34.80
81161;DHT22;70637;48.514;14.500;2024-03-02T19:01:12;27.40;34.80
81161;DHT22;70637;48.514;14.500;2024-03-02T19:03:37;27.30;34.70
81161;DHT22;70637;48.514;14.500;2024-03-02T19:06:03;27.30;34.70
81161;DHT22;70637;48.514;14.500;2024-03-02T19:08:29;27.40;34.90
81161;DHT22;70637;48.514;14.500;2024-03-02T19:10:56;27.30;34.80
81161;DHT22;70637;48.514;14.500;2024-03-02T19:13:22;27.30;34.80
81161;DHT22;70637;48.514;14.500;2024-03-02T19:15:49;27.30;34.80
81161;DHT22;70637;48.514;14.500;2024-03-02T19:18:15;27.30;34.90
81161;DHT22;70637;48.514;14.500;2024-03-02T19:20:41;27.30;35.30
81161;DHT22;70637;48.514;14.500;2024-03-02T19:23:07;27.30;35.00
81161;DHT22;70637;48.514;14.500;2024-03-02T19:25:33;27.30;35.00
81161;DHT22;70637;48.514;14.500;2024-03-02T19:27:59;27.30;35.00
81161;DHT22;70637;48.514;14.500;2024-03-02T19:30:24;27.30;35.00
81161;DHT22;70637;48.514;14.500;2024-03-02T19:32:53;27.30;35.00
81161;DHT22;70637;48.514;14.500;2024-03-02T19:35:18;27.30;35.00
81161;DHT22;70637;48.514;14.500;2024-03-02T19:37:44;27.30;35.10
81161;DHT22;70637;48.514;14.500;2024-03-02T19:40:12;27.30;35.10
81161;DHT22;70637;48.514;14.500;2024-03-02T19:42:39;27.40;35.20
81161;DHT22;70637;48.514;14.500;2024-03-02T19:45:05;27.30;35.10
81161;DHT22;70637;48.514;14.500;2024-03-02T19:47:31;27.30;35.10
81161;DHT22;70637;48.514;14.500;2024-03-02T19:49:58;27.30;35.10
81161;DHT22;70637;48.514;14.500;2024-03-02T19:52:24;27.40;35.20
81161;DHT22;70637;48.514;14.500;2024-03-02T19:54:52;27.40;35.40
81161;DHT22;70637;48.514;14.500;2024-03-02T19:57:18;27.30;35.20
81161;DHT22;70637;48.514;14.500;2024-03-02T19:59:44;27.30;35.10
81161;DHT22;70637;48.514;14.500;2024-03-02T20:02:10;27.40;35.10
81161;DHT22;70637;48.514;14.500;2024-03-02T20:04:37;27.40;35.20
81161;DHT22;70637;48.514;14.500;2024-03-02T20:07:04;27.40;35.20
81161;DHT22;70637;48.514;14.500;2024-03-02T20:09:29;27.30;35.10
81161;DHT22;70637;48.514;14.500;2024-03-02T20:11:55;27.30;35.20
81161;DHT22;70637;48.514;14.500;2024-03-02T20:14:24;27.40;35.30
81161;DHT22;70637;48.514;14.500;2024-03-02T20:16:50;27.40;35.40
81161;DHT22;70637;48.514;14.500;2024-03-02T20:19:15;27.40;35.50
81161;DHT22;70637;48.514;14.500;2024-03-02T20:21:46;27.30;35.50
81161;DHT22;70637;48.514;14.500;2024-03-02T20:24:12;27.40;35.70
81161;DHT22;70637;48.514;14.500;2024-03-02T20:26:37;27.30;35.50
81161;DHT22;70637;48.514;14.500;2024-03-02T20:29:03;27.30;35.50
81161;DHT22;70637;48.514;14.500;2024-03-02T20:31:29;27.30;35.60
81161;DHT22;70637;48.514;14.500;2024-03-02T20:33:55;27.40;35.90
81161;DHT22;70637;48.514;14.500;2024-03-02T20:36:21;27.40;35.80
81161;DHT22;70637;48.514;14.500;2024-03-02T20:38:47;27.30;35.70
81161;DHT22;70637;48.514;14.500;2024-03-02T20:41:16;27.40;35.90
81161;DHT22;70637;48.514;14.500;2024-03-02T20:43:43;27.30;35.90
81161;DHT22;70637;48.514;14.500;2024-03-02T20:46:08;27.40;36.00
81161;DHT22;70637;48.514;14.500;2024-03-02T20:48:34;27.40;36.00
81161;DHT22;70637;48.514;14.500;2024-03-02T20:51:00;27.40;36.10
81161;DHT22;70637;48.514;14.500;2024-03-02T20:53:26;27.40;36.00
81161;DHT22;70637;48.514;14.500;2024-03-02T20:55:51;27.40;36.00
81161;DHT22;70637;48.514;14.500;2024-03-02T20:58:17;27.40;36.10
81161;DHT22;70637;48.514;14.500;2024-03-02T21:00:43;27.40;35.90
81161;DHT22;70637;48.514;14.500;2024-03-02T21:03:09;27.40;35.80
81161;DHT22;70637;48.514;14.500;2024-03-02T21:05:34;27.40;35.70
81161;DHT22;70637;48.514;14.500;2024-03-02T21:08:00;27.40;35.60
81161;DHT22;70637;48.514;14.500;2024-03-02T21:10:29;27.40;35.70
81161;DHT22;70637;48.514;14.500;2024-03-02T21:12:54;27.40;35.60
81161;DHT22;70637;48.514;14.500;2024-03-02T21:15:20;27.40;35.70
81161;DHT22;70637;48.514;14.500;2024-03-02T21:17:46;27.50;35.70
81161;DHT22;70637;48.514;14.500;2024-03-02T21:20:11;27.40;35.90
81161;DHT22;70637;48.514;14.500;2024-03-02T21:22:38;27.40;35.60
81161;DHT22;70637;48.514;14.500;2024-03-02T21:25:06;27.50;35.70
81161;DHT22;70637;48.514;14.500;2024-03-02T21:27:37;27.50;35.70
81161;DHT22;70637;48.514;14.500;2024-03-02T21:30:07;27.40;35.70
81161;DHT22;70637;48.514;14.500;2024-03-02T21:32:36;27.50;35.70
81161;DHT22;70637;48.514;14.500;2024-03-02T21:35:02;27.40;35.60
81161;DHT22;70637;48.514;14.500;2024-03-02T21:37:27;27.50;35.70
81161;DHT22;70637;48.514;14.500;2024-03-02T21:39:54;27.50;35.70
81161;DHT22;70637;48.514;14.500;2024-03-02T21:42:23;27.50;35.70
81161;DHT22;70637;48.514;14.500;2024-03-02T21:44:49;27.50;35.60
81161;DHT22;70637;48.514;14.500;2024-03-02T21:47:15;27.50;35.50
81161;DHT22;70637;48.514;14.500;2024-03-02T21:49:42;27.50;35.40
81161;DHT22;70637;48.514;14.500;2024-03-02T21:52:08;27.50;35.40
81161;DHT22;70637;48.514;14.500;2024-03-02T21:54:35;27.50;35.30
81161;DHT22;70637;48.514;14.500;2024-03-02T21:57:00;27.50;35.30
81161;DHT22;70637;48.514;14.500;2024-03-02T21:59:28;27.50;35.20
81161;DHT22;70637;48.514;14.500;2024-03-02T22:01:54;27.50;35.20
81161;DHT22;70637;48.514;14.500;2024-03-02T22:04:19;27.50;35.20
81161;DHT22;70637;48.514;14.500;2024-03-02T22:06:45;27.50;35.20
81161;DHT22;70637;48.514;14.500;2024-03-02T22:09:10;27.50;35.10
81161;DHT22;70637;48.514;14.500;2024-03-02T22:11:39;27.60;35.20
81161;DHT22;70637;48.514;14.500;2024-03-02T22:14:05;27.60;35.10
81161;DHT22;70637;48.514;14.500;2024-03-02T22:16:30;27.50;35.10
81161;DHT22;70637;48.514;14.500;2024-03-02T22:18:56;27.50;35.10
81161;DHT22;70637;48.514;14.500;2024-03-02T22:21:21;27.60;35.10
81161;DHT22;70637;48.514;14.500;2024-03-02T22:23:47;27.50;35.00
81161;DHT22;70637;48.514;14.500;2024-03-02T22:26:13;27.60;35.10
81161;DHT22;70637;48.514;14.500;2024-03-02T22:28:39;27.60;35.10
81161;DHT22;70637;48.514;14.500;2024-03-02T22:31:04;27.50;35.00
81161;DHT22;70637;48.514;14.500;2024-03-02T22:33:30;27.50;35.00
81161;DHT22;70637;48.514;14.500;2024-03-02T22:35:56;27.50;35.00
81161;DHT22;70637;48.514;14.500;2024-03-02T22:38:21;27.50;35.00
81161;DHT22;70637;48.514;14.500;2024-03-02T22:40:47;27.60;36.10
81161;DHT22;70637;48.514;14.500;2024-03-02T22:43:13;27.50;34.90
81161;DHT22;70637;48.514;14.500;2024-03-02T22:45:39;27.50;34.90
81161;DHT22;70637;48.514;14.500;2024-03-02T22:48:04;27.60;35.00
81161;DHT22;70637;48.514;14.500;2024-03-02T22:50:30;27.60;35.00
81161;DHT22;70637;48.514;14.500;2024-03-02T22:52:56;27.50;34.90
81161;DHT22;70637;48.514;14.500;2024-03-02T22:55:21;27.60;35.00
81161;DHT22;70637;48.514;14.500;2024-03-02T22:57:47;27.60;35.00
81161;DHT22;70637;48.514;14.500;2024-03-02T23:00:13;27.50;34.90
81161;DHT22;70637;48.514;14.500;2024-03-02T23:02:57;27.50;34.90
81161;DHT22;70637;48.514;14.500;2024-03-02T23:05:23;27.50;34.90
81161;DHT22;70637;48.514;14.500;2024-03-02T23:07:49;27.50;34.90
81161;DHT22;70637;48.514;14.500;2024-03-02T23:10:14;27.60;34.90
81161;DHT22;70637;48.514;14.500;2024-03-02T23:12:40;27.60;34.90
81161;DHT22;70637;48.514;14.500;2024-03-02T23:15:06;27.60;34.90
81161;DHT22;70637;48.514;14.500;2024-03-02T23:17:33;27.60;35.00
81161;DHT22;70637;48.514;14.500;2024-03-02T23:19:59;27.50;34.90
81161;DHT22;70637;48.514;14.500;2024-03-02T23:22:25;27.60;34.90
81161;DHT22;70637;48.514;14.500;2024-03-02T23:24:53;27.60;34.90
81161;DHT22;70637;48.514;14.500;2024-03-02T23:27:19;27.60;34.90
81161;DHT22;70637;48.514;14.500;2024-03-02T23:29:45;27.60;34.90
81161;DHT22;70637;48.514;14.500;2024-03-02T23:32:10;27.60;34.90
81161;DHT22;70637;48.514;14.500;2024-03-02T23:34:37;27.50;34.80
81161;DHT22;70637;48.514;14.500;2024-03-02T23:37:04;27.60;34.90
81161;DHT22;70637;48.514;14.500;2024-03-02T23:39:30;27.50;35.90
81161;DHT22;70637;48.514;14.500;2024-03-02T23:42:24;27.50;34.80
81161;DHT22;70637;48.514;14.500;2024-03-02T23:44:50;27.60;34.90
81161;DHT22;70637;48.514;14.500;2024-03-02T23:47:15;27.50;34.80
81161;DHT22;70637;48.514;14.500;2024-03-02T23:49:41;27.50;34.90
81161;DHT22;70637;48.514;14.500;2024-03-02T23:52:07;27.50;34.80
81161;DHT22;70637;48.514;14.500;2024-03-02T23:54:32;27.50;34.80
81161;DHT22;70637;48.514;14.500;2024-03-02T23:56:58;27.50;34.80
81161;DHT22;70637;48.514;14.500;2024-03-02T23:59:24;27.60;34.90
